Nearby METAR Reports

This page may be slow to load as it queries the National Weather Service for data.

KBIS - Bismarck, North Dakota, USA
Distance from station: S 10mi, 15km
Updated: Thu, 25-Apr-2019 6:52pm CDT
Clear
Clear
 Wind from NW
Wind: NW 30 mph , 48 km/h, Gust: 41 mph , 67 km/h
Temperature: 55°F , 13°C
Dew Point: 7°F , -14°C
Humidity: 14%
Barometer: 30.11 inHg , 1019.6 hPa
Clouds: Clear
Visibility: 10 miles , 16 km
2019/04/25 23:52 KBIS 252352Z 32026G36KT 10SM CLR 13/M14 A3011 RMK AO2 PK WND 32038/2328 SLP205 T01331139 10161 20133 53007
KDIK - Dickinson, North Dakota, USA
Distance from station: W 95mi, 154km
Updated: Thu, 25-Apr-2019 6:56pm CDT
Clear
Clear
 Wind from NW
Wind: NW 25 mph , 41 km/h, Gust: 33 mph , 54 km/h
Temperature: 54°F , 12°C
Dew Point: 7°F , -14°C
Humidity: 15%
Barometer: 30.13 inHg , 1020.3 hPa
Clouds: Clear
Visibility: 10 miles , 16 km
2019/04/25 23:56 KDIK 252356Z AUTO 32022G29KT 10SM CLR 12/M14 A3013 RMK AO2 PK WND 32032/2324 SLP214 T01171139 10133 20117 53003
 
KISN - Williston, North Dakota, USA
Distance from station: NNW 2mi, 2km
Updated: Thu, 25-Apr-2019 6:52pm CDT
Clear
Clear
 Wind from NW
Wind: NW 15 mph , 24 km/h, Gust: 31 mph , 50 km/h
Temperature: 55°F , 13°C
Dew Point: 9°F , -13°C
Humidity: 15%
Barometer: 30.15 inHg , 1021 hPa
Clouds: Clear
Visibility: 10 miles , 16 km
2019/04/25 23:52 KISN 252352Z AUTO 32013G27KT 10SM CLR 13/M13 A3015 RMK AO2 PK WND 32039/2319 SLP221 T01281133 10139 20122 56002
KFAR - Fargo, North Dakota, USA
Distance from station: NNW 4mi, 7km
Updated: Thu, 25-Apr-2019 6:53pm CDT
Clear
Clear
 Wind from NW
Wind: NW 28 mph , 44 km/h, Gust: 39 mph , 63 km/h
Temperature: 57°F , 14°C
Dew Point: 19°F , -7°C
Humidity: 23%
Barometer: 29.97 inHg , 1014.9 hPa
Clouds: Clear
Visibility: 10 miles , 16 km
2019/04/25 23:53 KFAR 252353Z 31024G34KT 10SM CLR 14/M07 A2997 RMK AO2 PK WND 29037/2254 SLP153 T01391072 10189 20139 51013
 
KGFK - Grand Forks, North Dakota, USA
Distance from station: NNW 76mi, 123km
Updated: Thu, 25-Apr-2019 6:53pm CDT
Few Clouds
Few Clouds
 Wind from NW
Wind: NW 28 mph , 44 km/h, Gust: 39 mph , 63 km/h
Temperature: 55°F , 13°C
Dew Point: 28°F , -2°C
Humidity: 36%
Barometer: 29.94 inHg , 1013.9 hPa
Clouds: Few Clouds
Visibility: 10 miles , 16 km
Cloud details: Few Clouds 9500 ft
2019/04/25 23:53 KGFK 252353Z 32024G34KT 10SM FEW095 13/M02 A2994 RMK AO2 PK WND 32037/2309 SLP146 60000 T01281022 10167 20128 53015
KMOT - Minot, North Dakota, USA
Distance from station: E 109mi, 175km
Updated: Thu, 25-Apr-2019 6:54pm CDT
Few Clouds
Few Clouds
 Wind from WNW
Wind: WNW 23 mph , 37 km/h, Gust: 33 mph , 54 km/h
Temperature: 54°F , 12°C
Dew Point: 18°F , -8°C
Humidity: 24%
Barometer: 30.08 inHg , 1018.6 hPa
Clouds: Few Clouds
Visibility: 10 miles , 16 km
Cloud details: Few Clouds 8500 ft
2019/04/25 23:54 KMOT 252354Z 30020G29KT 10SM FEW085 12/M08 A3008 RMK AO2 PK WND 31036/2303 SLP194 T01171083 10144 20111 51009